createdAt,value
2022-12-18T00:03:16.165Z,-3.80
2022-12-18T00:08:18.333Z,-3.90
2022-12-18T00:13:20.137Z,-4.00
2022-12-18T00:18:22.057Z,-4.00
2022-12-18T00:23:24.017Z,-4.00
2022-12-18T00:28:25.821Z,-4.00
2022-12-18T00:33:28.362Z,-4.00
2022-12-18T00:38:30.358Z,-4.00
2022-12-18T00:43:35.787Z,-4.10
2022-12-18T00:48:37.807Z,-4.10
2022-12-18T00:53:40.200Z,-4.20
2022-12-18T00:58:42.472Z,-4.30
2022-12-18T01:03:46.144Z,-4.40
2022-12-18T01:08:47.957Z,-4.60
2022-12-18T01:13:50.242Z,-4.90
2022-12-18T01:18:53.950Z,-5.00
2022-12-18T01:23:58.517Z,-5.10
2022-12-18T01:29:00.380Z,-5.00
2022-12-18T01:34:02.691Z,-5.10
2022-12-18T01:39:07.516Z,-5.10
2022-12-18T01:44:47.654Z,-5.10
2022-12-18T01:49:52.013Z,-5.10
2022-12-18T01:54:54.186Z,-5.00
2022-12-18T02:00:01.833Z,-5.00
2022-12-18T02:05:04.386Z,-5.10
2022-12-18T02:10:12.057Z,-5.10
2022-12-18T02:15:19.448Z,-5.20
2022-12-18T02:20:26.906Z,-5.30
2022-12-18T02:26:01.384Z,-5.30
2022-12-18T02:31:06.050Z,-5.30
2022-12-18T02:36:09.084Z,-5.30
2022-12-18T02:41:11.569Z,-5.30
2022-12-18T02:46:35.776Z,-5.30
2022-12-18T02:56:53.218Z,-5.20
2022-12-18T03:02:33.039Z,-5.30
2022-12-18T03:07:39.273Z,-5.30
2022-12-18T03:12:48.277Z,-5.40
2022-12-18T03:17:55.719Z,-5.40
2022-12-18T03:23:25.583Z,-5.40
2022-12-18T03:28:30.156Z,-5.50
2022-12-18T03:33:37.072Z,-5.50
2022-12-18T03:38:39.549Z,-5.60
2022-12-18T03:43:48.770Z,-5.60
2022-12-18T03:49:03.042Z,-5.60
2022-12-18T03:54:14.589Z,-5.50
2022-12-18T03:59:17.694Z,-5.60
2022-12-18T04:04:20.041Z,-5.60
2022-12-18T04:09:22.062Z,-5.70
2022-12-18T04:14:23.895Z,-5.60
2022-12-18T04:19:25.733Z,-5.70
2022-12-18T04:24:27.893Z,-5.70
2022-12-18T04:29:29.692Z,-5.70
2022-12-18T04:34:32.046Z,-5.80
2022-12-18T04:39:33.869Z,-5.80
2022-12-18T04:44:35.686Z,-5.90
2022-12-18T04:49:37.518Z,-5.90
2022-12-18T04:54:39.317Z,-5.90
2022-12-18T04:59:41.166Z,-6.00
2022-12-18T05:04:43.047Z,-6.00
2022-12-18T05:09:44.886Z,-6.00
2022-12-18T05:14:47.089Z,-6.00
2022-12-18T05:19:49.153Z,-6.00
2022-12-18T05:24:51.097Z,-6.10
2022-12-18T05:29:52.936Z,-6.10
2022-12-18T05:34:54.746Z,-6.10
2022-12-18T05:39:57.043Z,-6.20
2022-12-18T05:44:58.864Z,-6.20
2022-12-18T05:50:01.302Z,-6.20
2022-12-18T05:55:03.186Z,-6.30
2022-12-18T06:00:05.526Z,-6.40
2022-12-18T06:05:08.886Z,-6.50
2022-12-18T06:10:11.225Z,-6.60
2022-12-18T06:15:13.116Z,-6.60
2022-12-18T06:20:16.261Z,-6.60
2022-12-18T06:25:18.910Z,-6.60
2022-12-18T06:30:21.062Z,-6.60
2022-12-18T06:35:22.961Z,-6.60
2022-12-18T06:40:24.883Z,-6.60
2022-12-18T06:45:26.861Z,-6.60
2022-12-18T06:50:29.538Z,-6.60
2022-12-18T06:55:31.565Z,-6.60
2022-12-18T07:00:33.414Z,-6.60
2022-12-18T07:05:35.715Z,-6.60
2022-12-18T07:10:47.414Z,-6.50
2022-12-18T07:15:50.107Z,-6.40
2022-12-18T07:20:51.934Z,-6.30
2022-12-18T07:25:53.782Z,-6.30
2022-12-18T07:30:55.604Z,-6.10
2022-12-18T07:36:00.288Z,-5.90
2022-12-18T07:41:08.762Z,-5.70
2022-12-18T07:46:12.329Z,-5.40
2022-12-18T07:51:15.813Z,-5.00
2022-12-18T07:56:27.247Z,-4.50
2022-12-18T08:01:30.420Z,-4.10
2022-12-18T08:06:32.469Z,-3.70
2022-12-18T08:11:34.337Z,-3.40
2022-12-18T08:16:36.446Z,-3.00
2022-12-18T08:21:38.488Z,-2.60
2022-12-18T08:26:40.367Z,-2.20
2022-12-18T08:31:42.245Z,-1.80
2022-12-18T08:36:44.092Z,-1.50
2022-12-18T08:42:10.128Z,-1.20
2022-12-18T08:47:12.521Z,-1.00
2022-12-18T08:52:17.195Z,-0.90
2022-12-18T08:57:19.086Z,-0.70
2022-12-18T09:02:21.077Z,-0.50
2022-12-18T09:07:23.097Z,-0.30
2022-12-18T09:12:25.006Z,-0.10
2022-12-18T09:17:27.249Z,0.10
2022-12-18T09:22:29.314Z,0.30
2022-12-18T09:27:31.217Z,0.30
2022-12-18T09:32:33.025Z,0.50
2022-12-18T09:37:34.863Z,0.70
2022-12-18T09:42:36.870Z,1.00
2022-12-18T09:47:39.903Z,1.00
2022-12-18T09:52:47.389Z,0.70
2022-12-18T09:57:53.214Z,0.40
2022-12-18T10:03:08.365Z,0.20
2022-12-18T10:14:25.186Z,-0.10
2022-12-18T10:19:51.375Z,-0.30
2022-12-18T10:25:15.519Z,-0.60
2022-12-18T10:30:22.911Z,-0.90
2022-12-18T10:35:28.306Z,-1.00
2022-12-18T10:40:30.459Z,-0.90
2022-12-18T10:45:32.627Z,-0.90
2022-12-18T10:56:01.719Z,-0.90
2022-12-18T11:01:17.875Z,-0.90
2022-12-18T11:06:25.551Z,-1.00
2022-12-18T11:11:27.950Z,-0.90
2022-12-18T11:16:32.383Z,-0.90
2022-12-18T11:21:40.634Z,-1.10
2022-12-18T11:26:44.429Z,-1.10
2022-12-18T11:31:46.487Z,-1.10
2022-12-18T11:36:49.538Z,-1.10
2022-12-18T11:42:11.090Z,-1.10
2022-12-18T11:47:26.552Z,-1.10
2022-12-18T11:52:33.110Z,-1.00
2022-12-18T11:57:44.247Z,-1.00
2022-12-18T12:03:04.497Z,-1.00
2022-12-18T12:08:06.360Z,-1.00
2022-12-18T12:13:34.730Z,-1.00
2022-12-18T12:18:39.521Z,-1.10
2022-12-18T12:23:47.928Z,-1.10
2022-12-18T12:29:32.327Z,-1.20
2022-12-18T12:34:46.323Z,-1.20
2022-12-18T12:39:50.596Z,-1.20
2022-12-18T12:44:56.527Z,-1.20
2022-12-18T12:50:00.953Z,-1.30
2022-12-18T12:55:11.515Z,-1.50
2022-12-18T13:00:20.267Z,-1.60
2022-12-18T13:05:44.669Z,-1.70
2022-12-18T13:10:46.544Z,-1.70
2022-12-18T13:16:05.071Z,-1.70
2022-12-18T13:21:33.729Z,-1.80
2022-12-18T13:26:37.133Z,-1.80
2022-12-18T13:31:43.391Z,-1.80
2022-12-18T13:36:46.550Z,-1.80
2022-12-18T13:41:51.863Z,-1.70
2022-12-18T13:46:53.737Z,-1.70
2022-12-18T13:51:56.647Z,-1.80
2022-12-18T13:56:59.155Z,-2.00
2022-12-18T14:02:14.602Z,-2.00
2022-12-18T14:07:31.355Z,-2.00
2022-12-18T14:12:55.766Z,-2.00
2022-12-18T14:18:10.591Z,-1.90
2022-12-18T14:23:34.374Z,-1.80
2022-12-18T14:28:45.134Z,-1.80
2022-12-18T14:33:46.936Z,-1.80
2022-12-18T14:38:59.605Z,-1.90
2022-12-18T14:44:08.144Z,-1.80
2022-12-18T14:49:35.245Z,-1.80
2022-12-18T14:54:38.362Z,-1.80
2022-12-18T14:59:40.161Z,-1.90
2022-12-18T15:04:44.717Z,-1.90
2022-12-18T15:10:01.848Z,-1.90
2022-12-18T15:15:05.383Z,-2.00
2022-12-18T15:20:11.867Z,-2.00
2022-12-18T15:25:43.031Z,-2.10
2022-12-18T15:31:04.973Z,-2.10
2022-12-18T15:36:11.718Z,-2.10
2022-12-18T15:41:24.497Z,-2.10
2022-12-18T15:46:27.768Z,-2.10
2022-12-18T15:51:34.671Z,-2.10
2022-12-18T15:56:55.083Z,-2.10
2022-12-18T16:01:57.281Z,-2.10
2022-12-18T16:08:05.463Z,-2.10
2022-12-18T16:13:26.556Z,-2.10
2022-12-18T16:18:31.147Z,-2.00
2022-12-18T16:23:33.241Z,-2.00
2022-12-18T16:28:35.085Z,-2.00
2022-12-18T16:33:36.877Z,-2.00
2022-12-18T16:38:38.786Z,-2.00
2022-12-18T16:43:41.159Z,-2.00
2022-12-18T16:48:44.638Z,-1.90
2022-12-18T16:53:48.825Z,-1.90
2022-12-18T16:58:56.451Z,-1.90
2022-12-18T17:04:04.018Z,-1.90
2022-12-18T17:09:14.140Z,-2.00
2022-12-18T17:14:19.073Z,-2.00
2022-12-18T17:19:32.188Z,-2.00
2022-12-18T17:24:38.954Z,-2.00
2022-12-18T17:29:47.199Z,-2.00
2022-12-18T17:34:52.970Z,-2.00
2022-12-18T17:39:55.011Z,-2.00
2022-12-18T17:44:57.624Z,-1.90
2022-12-18T17:50:04.856Z,-1.90
2022-12-18T17:55:07.205Z,-1.90
2022-12-18T18:00:12.861Z,-1.90
2022-12-18T18:05:15.458Z,-1.90
2022-12-18T18:10:18.025Z,-1.90
2022-12-18T18:15:19.871Z,-1.90
2022-12-18T18:20:22.908Z,-1.90
2022-12-18T18:25:24.986Z,-1.90
2022-12-18T18:30:27.654Z,-1.90
2022-12-18T18:35:53.504Z,-1.90
2022-12-18T18:41:10.429Z,-1.90
2022-12-18T18:46:15.696Z,-1.90
2022-12-18T18:51:21.184Z,-1.90
2022-12-18T19:01:46.707Z,-1.90
2022-12-18T19:06:49.335Z,-1.90
2022-12-18T19:12:11.129Z,-1.80
2022-12-18T19:17:13.034Z,-1.80
2022-12-18T19:22:18.212Z,-1.80
2022-12-18T19:27:20.203Z,-1.80
2022-12-18T19:32:22.047Z,-1.80
2022-12-18T19:37:23.948Z,-1.70
2022-12-18T19:42:33.429Z,-1.70
2022-12-18T19:47:37.231Z,-1.70
2022-12-18T19:52:39.023Z,-1.70
2022-12-18T19:57:41.017Z,-1.70
2022-12-18T20:02:43.022Z,-1.60
2022-12-18T20:07:44.886Z,-1.60
2022-12-18T20:12:46.698Z,-1.60
2022-12-18T20:17:48.509Z,-1.60
2022-12-18T20:22:50.370Z,-1.60
2022-12-18T20:27:52.415Z,-1.60
2022-12-18T20:32:54.236Z,-1.60
2022-12-18T20:37:56.140Z,-1.60
2022-12-18T20:43:01.589Z,-1.60
2022-12-18T20:48:04.728Z,-1.60
2022-12-18T20:53:06.591Z,-1.60
2022-12-18T20:58:08.465Z,-1.50
2022-12-18T21:03:12.728Z,-1.50
2022-12-18T21:08:18.233Z,-1.50
2022-12-18T21:13:20.074Z,-1.50
2022-12-18T21:18:22.038Z,-1.50
2022-12-18T21:23:23.917Z,-1.50
2022-12-18T21:28:28.611Z,-1.50
2022-12-18T21:33:30.651Z,-1.50
2022-12-18T21:38:32.706Z,-1.60
2022-12-18T21:43:55.830Z,-1.60
2022-12-18T21:48:57.769Z,-1.60
2022-12-18T21:53:59.809Z,-1.70
2022-12-18T21:59:01.625Z,-1.70
2022-12-18T22:04:03.961Z,-1.90
2022-12-18T22:09:09.372Z,-1.80
2022-12-18T22:14:11.508Z,-2.00
2022-12-18T22:19:14.167Z,-2.10
2022-12-18T22:24:25.220Z,-2.10
2022-12-18T22:30:02.499Z,-2.20
2022-12-18T22:35:09.488Z,-2.20
2022-12-18T22:40:24.414Z,-2.30
2022-12-18T22:45:27.922Z,-2.30
2022-12-18T22:50:29.953Z,-2.40
2022-12-18T22:55:34.855Z,-2.40
2022-12-18T23:00:36.672Z,-2.40
2022-12-18T23:05:38.471Z,-2.40
2022-12-18T23:10:40.286Z,-2.50
2022-12-18T23:15:42.739Z,-2.40
2022-12-18T23:20:44.916Z,-2.30
2022-12-18T23:25:47.795Z,-2.30
2022-12-18T23:30:50.439Z,-2.20
2022-12-18T23:35:52.264Z,-2.30
2022-12-18T23:40:56.324Z,-2.30
2022-12-18T23:45:58.907Z,-2.30
2022-12-18T23:51:08.303Z,-2.30
2022-12-18T23:56:14.592Z,-2.30
